createdAt,value
2018-05-02T00:00:19.131Z,8.95
2018-05-02T00:01:19.116Z,8.97
2018-05-02T00:02:19.078Z,8.88
2018-05-02T00:03:19.064Z,8.95
2018-05-02T00:04:19.028Z,8.95
2018-05-02T00:05:19.010Z,8.88
2018-05-02T00:06:18.977Z,9.00
2018-05-02T00:07:18.953Z,8.92
2018-05-02T00:08:18.924Z,8.99
2018-05-02T00:09:18.898Z,8.88
2018-05-02T00:10:18.877Z,8.85
2018-05-02T00:11:18.845Z,8.87
2018-05-02T00:12:18.815Z,8.88
2018-05-02T00:13:18.798Z,8.82
2018-05-02T00:14:18.771Z,8.81
2018-05-02T00:15:18.741Z,8.81
2018-05-02T00:16:18.714Z,8.79
2018-05-02T00:17:18.691Z,8.71
2018-05-02T00:18:18.666Z,8.84
2018-05-02T00:19:18.637Z,8.85
2018-05-02T00:20:18.609Z,8.87
2018-05-02T00:21:18.585Z,8.79
2018-05-02T00:22:18.556Z,8.78
2018-05-02T00:23:18.530Z,8.87
2018-05-02T00:24:18.498Z,8.79
2018-05-02T00:25:18.480Z,8.69
2018-05-02T00:26:18.448Z,8.78
2018-05-02T00:27:18.426Z,8.71
2018-05-02T00:28:18.404Z,8.73
2018-05-02T00:29:18.374Z,8.70
2018-05-02T00:30:18.340Z,8.70
2018-05-02T00:31:18.324Z,8.60
2018-05-02T00:32:18.287Z,8.55
2018-05-02T00:33:18.270Z,8.56
2018-05-02T00:34:18.234Z,8.56
2018-05-02T00:35:18.216Z,8.51
2018-05-02T00:36:18.187Z,8.48
2018-05-02T00:37:18.166Z,8.42
2018-05-02T00:38:18.131Z,8.46
2018-05-02T00:39:18.103Z,8.33
2018-05-02T00:40:18.084Z,8.38
2018-05-02T00:41:18.051Z,8.28
2018-05-02T00:42:18.028Z,8.30
2018-05-02T00:43:17.999Z,8.34
2018-05-02T00:44:17.976Z,8.28
2018-05-02T00:45:17.945Z,8.30
2018-05-02T00:46:17.926Z,8.28
2018-05-02T00:47:17.892Z,8.26
2018-05-02T00:48:17.874Z,8.26
2018-05-02T00:49:17.837Z,8.19
2018-05-02T00:50:17.825Z,8.16
2018-05-02T00:51:17.786Z,8.26
2018-05-02T00:52:17.771Z,8.13
2018-05-02T00:53:17.733Z,8.05
2018-05-02T00:54:17.713Z,8.13
2018-05-02T00:55:17.688Z,8.09
2018-05-02T00:56:17.652Z,8.13
2018-05-02T00:57:17.635Z,8.23
2018-05-02T00:58:17.604Z,8.24
2018-05-02T00:59:17.580Z,8.24
2018-05-02T01:00:17.549Z,8.27
2018-05-02T01:01:17.525Z,8.26
2018-05-02T01:02:17.495Z,8.19
2018-05-02T01:03:17.474Z,8.19
2018-05-02T01:04:17.444Z,8.24
2018-05-02T01:05:17.423Z,8.26
2018-05-02T01:06:17.395Z,8.19
2018-05-02T01:07:17.364Z,8.19
2018-05-02T01:08:17.342Z,8.09
2018-05-02T01:09:17.309Z,8.13
2018-05-02T01:10:17.296Z,8.05
2018-05-02T01:11:17.255Z,8.16
2018-05-02T01:12:17.239Z,8.26
2018-05-02T01:13:17.203Z,8.18
2018-05-02T01:14:17.183Z,8.20
2018-05-02T01:15:17.158Z,8.28
2018-05-02T01:16:17.125Z,8.26
2018-05-02T01:17:17.111Z,8.28
2018-05-02T01:18:17.079Z,8.26
2018-05-02T01:19:17.043Z,8.28
2018-05-02T01:20:17.019Z,8.33
2018-05-02T01:21:16.996Z,8.30
2018-05-02T01:22:16.974Z,8.28
2018-05-02T01:23:16.937Z,8.33
2018-05-02T01:24:16.937Z,8.27
2018-05-02T01:25:16.884Z,8.33
2018-05-02T01:26:16.865Z,8.26
2018-05-02T01:27:16.833Z,8.30
2018-05-02T01:28:16.811Z,8.19
2018-05-02T01:29:16.780Z,8.23
2018-05-02T01:30:16.755Z,8.23
2018-05-02T01:31:16.731Z,8.16
2018-05-02T01:32:16.705Z,8.26
2018-05-02T01:33:16.680Z,8.20
2018-05-02T01:34:16.645Z,8.27
2018-05-02T01:35:16.631Z,8.30
2018-05-02T01:36:16.595Z,8.31
2018-05-02T01:37:16.574Z,8.27
2018-05-02T01:38:16.545Z,8.28
2018-05-02T01:39:16.515Z,8.27
2018-05-02T01:40:16.492Z,8.23
2018-05-02T01:41:16.464Z,8.26
2018-05-02T01:42:16.439Z,8.26
2018-05-02T01:43:16.412Z,8.23
2018-05-02T01:44:16.384Z,8.26
2018-05-02T01:45:16.358Z,8.31
2018-05-02T01:46:16.332Z,8.26
2018-05-02T01:47:16.303Z,8.27
2018-05-02T01:48:16.284Z,8.23
2018-05-02T01:49:16.248Z,8.27
2018-05-02T01:50:16.229Z,8.19
2018-05-02T01:51:16.193Z,8.13
2018-05-02T01:52:16.177Z,8.18
2018-05-02T01:53:16.144Z,8.12
2018-05-02T01:54:16.117Z,8.10
2018-05-02T01:55:16.095Z,8.18
2018-05-02T01:56:16.071Z,8.13
2018-05-02T01:57:16.034Z,8.15
2018-05-02T01:58:16.010Z,8.13
2018-05-02T01:59:15.985Z,8.18
2018-05-02T02:00:15.956Z,8.18
2018-05-02T02:01:15.939Z,8.06
2018-05-02T02:02:15.910Z,8.12
2018-05-02T02:03:15.877Z,8.13
2018-05-02T02:04:15.859Z,8.12
2018-05-02T02:05:15.824Z,8.18
2018-05-02T02:06:15.800Z,8.16
2018-05-02T02:07:15.773Z,8.12
2018-05-02T02:08:15.749Z,8.16
2018-05-02T02:09:15.719Z,8.12
2018-05-02T02:10:15.695Z,8.10
2018-05-02T02:11:15.671Z,8.10
2018-05-02T02:12:15.645Z,8.09
2018-05-02T02:13:15.614Z,8.12
2018-05-02T02:14:15.592Z,8.13
2018-05-02T02:15:15.560Z,8.13
2018-05-02T02:16:15.540Z,8.08
2018-05-02T02:17:15.509Z,8.18
2018-05-02T02:18:15.480Z,8.12
2018-05-02T02:19:15.454Z,8.01
2018-05-02T02:20:15.430Z,8.12
2018-05-02T02:21:15.400Z,8.06
2018-05-02T02:22:15.373Z,7.98
2018-05-02T02:23:15.350Z,7.97
2018-05-02T02:24:15.327Z,8.00
2018-05-02T02:25:15.291Z,7.98
2018-05-02T02:26:15.269Z,7.98
2018-05-02T02:27:15.240Z,8.01
2018-05-02T02:28:15.221Z,8.06
2018-05-02T02:29:15.188Z,8.01
2018-05-02T02:30:15.159Z,8.03
2018-05-02T02:31:15.140Z,8.01
2018-05-02T02:32:15.112Z,8.01
2018-05-02T02:33:15.088Z,8.05
2018-05-02T02:34:15.057Z,8.00
2018-05-02T02:35:15.032Z,7.91
2018-05-02T02:36:15.008Z,7.91
2018-05-02T02:37:14.975Z,7.85
2018-05-02T02:38:14.945Z,7.87
2018-05-02T02:39:14.937Z,7.90
2018-05-02T02:40:14.899Z,7.87
2018-05-02T02:41:14.867Z,7.91
2018-05-02T02:42:14.846Z,7.98
2018-05-02T02:43:14.815Z,8.00
2018-05-02T02:44:14.793Z,8.00
2018-05-02T02:45:14.773Z,7.90
2018-05-02T02:46:14.736Z,7.90
2018-05-02T02:47:14.708Z,7.88
2018-05-02T02:48:14.684Z,7.93
2018-05-02T02:49:14.661Z,8.00
2018-05-02T02:50:14.632Z,7.91
2018-05-02T02:51:14.606Z,7.95
2018-05-02T02:52:14.583Z,7.93
2018-05-02T02:53:14.549Z,7.88
2018-05-02T02:54:14.530Z,7.93
2018-05-02T02:55:14.519Z,7.87
2018-05-02T02:56:14.476Z,7.87
2018-05-02T02:57:14.443Z,7.88
2018-05-02T02:58:14.417Z,7.90
2018-05-02T02:59:14.394Z,7.90
2018-05-02T03:00:14.370Z,7.93
2018-05-02T03:01:14.342Z,7.88
2018-05-02T03:02:14.319Z,7.95
2018-05-02T03:03:14.292Z,7.91
2018-05-02T03:04:14.255Z,7.87
2018-05-02T03:05:14.236Z,7.85
2018-05-02T03:06:14.210Z,7.83
2018-05-02T03:07:14.175Z,7.85
2018-05-02T03:08:14.155Z,7.87
2018-05-02T03:09:14.122Z,7.76
2018-05-02T03:10:14.103Z,7.79
2018-05-02T03:11:14.076Z,7.80
2018-05-02T03:12:14.048Z,7.80
2018-05-02T03:13:14.016Z,7.79
2018-05-02T03:14:13.993Z,7.83
2018-05-02T03:15:13.966Z,7.87
2018-05-02T03:16:13.938Z,7.67
2018-05-02T03:17:13.911Z,7.82
2018-05-02T03:18:13.885Z,7.75
2018-05-02T03:19:13.858Z,7.70
2018-05-02T03:20:13.851Z,7.73
2018-05-02T03:21:13.802Z,7.66
2018-05-02T03:22:13.778Z,7.60
2018-05-02T03:23:13.759Z,7.60
2018-05-02T03:24:13.731Z,7.54
2018-05-02T03:25:13.700Z,7.61
2018-05-02T03:26:13.674Z,7.54
2018-05-02T03:27:13.647Z,7.53
2018-05-02T03:28:13.625Z,7.56
2018-05-02T03:29:13.589Z,7.50
2018-05-02T03:30:13.572Z,7.54
2018-05-02T03:31:13.541Z,7.54
2018-05-02T03:32:13.515Z,7.54
2018-05-02T03:33:13.488Z,7.58
2018-05-02T03:34:13.461Z,7.60
2018-05-02T03:35:13.430Z,7.61
2018-05-02T03:36:13.403Z,7.61
2018-05-02T03:37:13.385Z,7.60
2018-05-02T03:38:13.354Z,7.53
2018-05-02T03:39:13.329Z,7.54
2018-05-02T03:40:13.305Z,7.48
2018-05-02T03:41:13.274Z,7.50
2018-05-02T03:42:13.242Z,7.48
2018-05-02T03:43:13.224Z,7.51
2018-05-02T03:44:13.195Z,7.51
2018-05-02T03:45:13.169Z,7.51
2018-05-02T03:46:13.138Z,7.50
2018-05-02T03:47:13.116Z,7.56
2018-05-02T03:48:13.084Z,7.50
2018-05-02T03:49:13.058Z,7.50
2018-05-02T03:50:13.037Z,7.54
2018-05-02T03:51:13.013Z,7.43
2018-05-02T03:52:12.986Z,7.53
2018-05-02T03:53:12.955Z,7.51
2018-05-02T03:54:12.927Z,7.51
2018-05-02T03:55:12.901Z,7.51
2018-05-02T03:56:12.876Z,7.56
2018-05-02T03:57:12.845Z,7.45
2018-05-02T03:58:12.845Z,7.56
2018-05-02T03:59:12.789Z,7.43
2018-05-02T04:00:12.773Z,7.45
2018-05-02T04:01:12.736Z,7.43
2018-05-02T04:02:12.712Z,7.50
2018-05-02T04:03:12.692Z,7.51
2018-05-02T04:04:12.659Z,7.48
2018-05-02T04:05:12.634Z,7.51
2018-05-02T04:06:12.608Z,7.48
2018-05-02T04:07:12.584Z,7.43
2018-05-02T04:08:12.557Z,7.43
2018-05-02T04:09:12.531Z,7.56
2018-05-02T04:10:12.498Z,7.42
2018-05-02T04:11:12.477Z,7.48
2018-05-02T04:12:12.444Z,7.40
2018-05-02T04:13:12.426Z,7.56
2018-05-02T04:14:12.392Z,7.51
2018-05-02T04:15:12.368Z,7.50
2018-05-02T04:16:12.339Z,7.47
2018-05-02T04:17:12.328Z,7.45
2018-05-02T04:18:12.293Z,7.40
2018-05-02T04:19:12.255Z,7.47
2018-05-02T04:20:12.238Z,7.45
2018-05-02T04:21:12.206Z,7.56
2018-05-02T04:22:12.181Z,7.54
2018-05-02T04:23:12.158Z,7.48
2018-05-02T04:24:12.124Z,7.63
2018-05-02T04:25:12.104Z,7.35
2018-05-02T04:26:12.169Z,7.48
2018-05-02T04:27:12.043Z,7.40
2018-05-02T04:28:12.025Z,7.42
2018-05-02T04:29:11.987Z,7.45
2018-05-02T04:30:11.969Z,7.42
2018-05-02T04:31:11.945Z,7.51
2018-05-02T04:32:11.914Z,7.40
2018-05-02T04:33:11.884Z,7.51
2018-05-02T04:34:11.855Z,7.51
2018-05-02T04:35:11.838Z,7.57
2018-05-02T04:36:11.808Z,7.57
2018-05-02T04:37:11.778Z,7.51
2018-05-02T04:38:11.750Z,7.56
2018-05-02T04:39:11.728Z,7.57
2018-05-02T04:40:11.700Z,7.53
2018-05-02T04:41:11.709Z,7.53
2018-05-02T04:42:11.644Z,7.51
2018-05-02T04:43:11.624Z,7.53
2018-05-02T04:44:11.590Z,7.54
2018-05-02T04:45:11.569Z,7.53
2018-05-02T04:46:11.538Z,7.51
2018-05-02T04:47:11.513Z,7.51
2018-05-02T04:48:11.485Z,7.51
2018-05-02T04:49:11.461Z,7.53
2018-05-02T04:50:11.437Z,7.53
2018-05-02T04:51:11.402Z,7.61
2018-05-02T04:52:11.385Z,7.69
2018-05-02T04:53:11.348Z,7.72
2018-05-02T04:54:11.327Z,7.63
2018-05-02T04:55:11.353Z,7.70
2018-05-02T04:56:11.273Z,7.70
2018-05-02T04:57:11.245Z,7.72
2018-05-02T04:58:11.225Z,7.67
2018-05-02T04:59:11.191Z,7.72
2018-05-02T05:00:11.164Z,7.82
2018-05-02T05:01:11.141Z,7.73
2018-05-02T05:02:11.111Z,7.77
2018-05-02T05:03:11.085Z,7.82
2018-05-02T05:04:11.057Z,7.79
2018-05-02T05:05:11.038Z,7.79
2018-05-02T05:06:11.006Z,7.73
2018-05-02T05:07:10.978Z,7.79
2018-05-02T05:08:10.953Z,7.77
2018-05-02T05:09:10.923Z,7.77
2018-05-02T05:10:10.904Z,7.90
2018-05-02T05:11:10.868Z,7.80
2018-05-02T05:12:10.926Z,7.90
2018-05-02T05:13:10.815Z,8.01
2018-05-02T05:14:10.788Z,8.01
2018-05-02T05:15:10.771Z,7.90
2018-05-02T05:16:10.740Z,8.03
2018-05-02T05:17:10.717Z,7.98
2018-05-02T05:18:10.683Z,8.01
2018-05-02T05:19:10.660Z,8.06
2018-05-02T05:20:10.843Z,8.10
2018-05-02T05:21:10.608Z,8.08
2018-05-02T05:22:10.578Z,8.12
2018-05-02T05:23:10.554Z,8.10
2018-05-02T05:24:10.526Z,8.15
2018-05-02T05:25:10.501Z,8.16
2018-05-02T05:26:10.471Z,8.23
2018-05-02T05:27:10.450Z,8.19
2018-05-02T05:28:10.451Z,8.24
2018-05-02T05:29:10.391Z,8.30
2018-05-02T05:30:10.374Z,8.31
2018-05-02T05:31:10.339Z,8.33
2018-05-02T05:32:10.324Z,8.36
2018-05-02T05:33:10.281Z,8.45
2018-05-02T05:34:10.263Z,8.46
2018-05-02T05:35:10.306Z,8.37
2018-05-02T05:36:10.208Z,8.51
2018-05-02T05:37:10.178Z,8.55
2018-05-02T05:38:10.161Z,8.60
2018-05-02T05:39:10.126Z,8.67
2018-05-02T05:40:10.101Z,8.71
2018-05-02T05:41:10.072Z,8.69
2018-05-02T05:42:10.053Z,8.71
2018-05-02T05:43:10.018Z,8.76
2018-05-02T05:44:09.998Z,8.70
2018-05-02T05:45:09.970Z,8.71
2018-05-02T05:46:09.936Z,8.87
2018-05-02T05:47:09.920Z,8.82
2018-05-02T05:48:09.885Z,8.78
2018-05-02T05:49:09.867Z,8.85
2018-05-02T05:50:09.835Z,8.97
2018-05-02T05:51:09.811Z,8.97
2018-05-02T05:52:09.781Z,9.00
2018-05-02T05:53:09.755Z,8.99
2018-05-02T05:54:09.823Z,9.10
2018-05-02T05:55:09.704Z,9.10
2018-05-02T05:56:09.675Z,9.16
2018-05-02T05:57:09.650Z,9.03
2018-05-02T05:58:09.623Z,9.18
2018-05-02T05:59:09.601Z,9.28
2018-05-02T06:00:09.568Z,9.23
2018-05-02T06:01:09.546Z,9.37
2018-05-02T06:02:09.522Z,9.31
2018-05-02T06:03:09.484Z,9.40
2018-05-02T06:04:09.462Z,9.44
2018-05-02T06:05:09.449Z,9.50
2018-05-02T06:06:09.442Z,9.50
2018-05-02T06:07:09.382Z,9.54
2018-05-02T06:08:09.354Z,9.54
2018-05-02T06:09:09.338Z,9.58
2018-05-02T06:10:09.310Z,9.59
2018-05-02T06:11:09.277Z,9.59
2018-05-02T06:12:09.249Z,9.64
2018-05-02T06:13:09.228Z,9.66
2018-05-02T06:14:09.205Z,9.74
2018-05-02T06:15:09.175Z,9.84
2018-05-02T06:16:09.144Z,9.86
2018-05-02T06:17:09.119Z,9.94
2018-05-02T06:18:09.087Z,9.87
2018-05-02T06:19:09.069Z,10.01
2018-05-02T06:20:09.042Z,10.02
2018-05-02T06:21:09.009Z,10.04
2018-05-02T06:22:09.043Z,10.09
2018-05-02T06:23:08.974Z,10.13
2018-05-02T06:24:08.938Z,10.16
2018-05-02T06:25:08.905Z,10.22
2018-05-02T06:26:08.887Z,10.25
2018-05-02T06:27:08.856Z,10.23
2018-05-02T06:28:08.828Z,10.28
2018-05-02T06:29:08.800Z,10.26
2018-05-02T06:30:08.781Z,10.31
2018-05-02T06:31:08.753Z,10.41
2018-05-02T06:32:08.728Z,10.40
2018-05-02T06:33:08.698Z,10.38
2018-05-02T06:34:08.672Z,10.38
2018-05-02T06:35:08.638Z,10.49
2018-05-02T06:36:08.619Z,10.60
2018-05-02T06:37:08.590Z,10.57
2018-05-02T06:38:08.564Z,10.56
2018-05-02T06:39:08.537Z,10.64
2018-05-02T06:40:08.511Z,10.69
2018-05-02T06:41:08.483Z,10.64
2018-05-02T06:42:08.460Z,10.78
2018-05-02T06:43:08.434Z,10.81
2018-05-02T06:44:08.403Z,10.76
2018-05-02T06:45:08.376Z,10.81
2018-05-02T06:46:08.358Z,10.92
2018-05-02T06:47:08.320Z,10.90
2018-05-02T06:48:08.303Z,10.99
2018-05-02T06:49:08.304Z,10.97
2018-05-02T06:50:08.256Z,11.08
2018-05-02T06:51:08.235Z,11.05
2018-05-02T06:52:08.197Z,11.12
2018-05-02T06:53:08.166Z,11.14
2018-05-02T06:54:08.145Z,11.11
2018-05-02T06:55:08.111Z,11.12
2018-05-02T06:56:08.094Z,11.18
2018-05-02T06:57:08.063Z,11.11
2018-05-02T06:58:08.039Z,11.27
2018-05-02T06:59:08.012Z,11.22
2018-05-02T07:00:07.985Z,11.29
2018-05-02T07:01:07.960Z,11.17
2018-05-02T07:02:07.927Z,11.29
2018-05-02T07:03:07.902Z,11.40
2018-05-02T07:04:07.880Z,11.47
2018-05-02T07:05:07.849Z,11.48
2018-05-02T07:06:07.833Z,11.50
2018-05-02T07:07:07.841Z,11.47
2018-05-02T07:08:07.802Z,11.52
2018-05-02T07:09:07.749Z,11.57
2018-05-02T07:10:07.717Z,11.62
2018-05-02T07:11:07.699Z,11.60
2018-05-02T07:12:07.670Z,11.75
2018-05-02T07:13:07.640Z,11.75
2018-05-02T07:14:07.613Z,11.75
2018-05-02T07:15:07.596Z,11.81
2018-05-02T07:16:07.567Z,11.88
2018-05-02T07:17:07.548Z,11.99
2018-05-02T07:18:07.516Z,12.00
2018-05-02T07:19:07.487Z,11.95
2018-05-02T07:20:07.462Z,12.00
2018-05-02T07:21:07.434Z,12.00
2018-05-02T07:22:07.402Z,12.15
2018-05-02T07:23:07.384Z,12.17
2018-05-02T07:24:07.421Z,12.27
2018-05-02T07:25:07.327Z,12.27
2018-05-02T07:26:07.303Z,12.32
2018-05-02T07:27:07.282Z,12.35
2018-05-02T07:28:07.255Z,12.36
2018-05-02T07:29:07.219Z,12.42
2018-05-02T07:30:07.197Z,12.40
2018-05-02T07:31:07.169Z,12.49
2018-05-02T07:32:07.150Z,12.47
2018-05-02T07:33:07.169Z,12.46
2018-05-02T07:34:07.089Z,12.53
2018-05-02T07:35:07.078Z,12.46
2018-05-02T07:36:07.042Z,12.55
2018-05-02T07:37:07.018Z,12.54
2018-05-02T07:38:06.994Z,12.58
2018-05-02T07:39:06.959Z,12.54
2018-05-02T07:40:06.942Z,12.55
2018-05-02T07:41:06.906Z,12.57
2018-05-02T07:42:06.890Z,12.54
2018-05-02T07:43:06.856Z,12.67
2018-05-02T07:44:06.840Z,12.67
2018-05-02T07:45:06.807Z,12.67
2018-05-02T07:46:06.781Z,12.68
2018-05-02T07:47:06.760Z,12.70
2018-05-02T07:48:06.731Z,12.73
2018-05-02T07:49:06.708Z,12.75
2018-05-02T07:50:06.682Z,12.76
2018-05-02T07:51:06.644Z,12.79
2018-05-02T07:52:06.628Z,12.82
2018-05-02T07:53:06.629Z,12.87
2018-05-02T07:54:06.575Z,12.94
2018-05-02T07:55:06.548Z,12.97
2018-05-02T07:56:06.524Z,12.98
2018-05-02T07:57:06.494Z,13.08
2018-05-02T07:58:06.511Z,13.00
2018-05-02T07:59:06.441Z,12.98
2018-05-02T08:00:06.423Z,13.00
2018-05-02T08:01:06.388Z,13.08
2018-05-02T08:02:06.363Z,13.03
2018-05-02T08:03:06.341Z,13.13
2018-05-02T08:04:06.318Z,13.20
2018-05-02T08:05:06.288Z,13.22
2018-05-02T08:06:06.266Z,13.19
2018-05-02T08:07:06.239Z,13.35
2018-05-02T08:08:06.209Z,13.33
2018-05-02T08:09:06.186Z,13.33
2018-05-02T08:10:06.155Z,13.37
2018-05-02T08:11:06.206Z,13.30
2018-05-02T08:12:06.109Z,13.39
2018-05-02T08:13:06.082Z,13.37
2018-05-02T08:14:06.052Z,13.37
2018-05-02T08:15:06.031Z,13.33
2018-05-02T08:16:06.005Z,13.44
2018-05-02T08:17:05.975Z,13.39
2018-05-02T08:18:05.951Z,13.56
2018-05-02T08:19:05.923Z,13.46
2018-05-02T08:20:05.900Z,13.50
2018-05-02T08:21:05.876Z,13.41
2018-05-02T08:22:05.848Z,13.57
2018-05-02T08:23:05.825Z,13.59
2018-05-02T08:24:05.793Z,13.65
2018-05-02T08:25:05.770Z,13.72
2018-05-02T08:26:05.751Z,13.74
2018-05-02T08:27:05.713Z,13.68
2018-05-02T08:28:05.697Z,13.72
2018-05-02T08:29:05.665Z,13.70
2018-05-02T08:30:05.660Z,13.71
2018-05-02T08:31:05.620Z,13.83
2018-05-02T08:32:05.607Z,13.81
2018-05-02T08:33:05.561Z,13.83
2018-05-02T08:34:05.539Z,13.85
2018-05-02T08:35:05.540Z,13.81
2018-05-02T08:36:05.489Z,13.78
2018-05-02T08:37:05.457Z,13.79
2018-05-02T08:38:05.439Z,13.72
2018-05-02T08:39:05.404Z,13.77
2018-05-02T08:40:05.387Z,13.75
2018-05-02T08:41:05.354Z,13.72
2018-05-02T08:42:05.332Z,13.85
2018-05-02T08:43:05.308Z,13.96
2018-05-02T08:44:05.278Z,14.00
2018-05-02T08:45:05.258Z,14.14
2018-05-02T08:46:05.233Z,14.18
2018-05-02T08:47:05.200Z,14.25
2018-05-02T08:48:05.175Z,14.25
2018-05-02T08:49:05.151Z,14.20
2018-05-02T08:50:05.130Z,14.11
2018-05-02T08:51:05.100Z,14.10
2018-05-02T08:52:05.074Z,14.25
2018-05-02T08:53:05.052Z,14.25
2018-05-02T08:54:05.041Z,14.26
2018-05-02T08:55:04.998Z,14.30
2018-05-02T08:56:04.970Z,14.33
2018-05-02T08:57:04.950Z,14.32
2018-05-02T08:58:04.926Z,14.36
2018-05-02T08:59:04.893Z,14.33
2018-05-02T09:00:04.868Z,14.48
2018-05-02T09:01:04.844Z,14.53
2018-05-02T09:02:04.816Z,14.50
2018-05-02T09:03:04.796Z,14.60
2018-05-02T09:04:04.773Z,14.59
2018-05-02T09:05:04.741Z,14.69
2018-05-02T09:06:04.716Z,14.72
2018-05-02T09:07:04.705Z,14.72
2018-05-02T09:08:04.661Z,14.84
2018-05-02T09:09:04.643Z,14.82
2018-05-02T09:10:04.620Z,14.82
2018-05-02T09:11:04.592Z,14.96
2018-05-02T09:12:04.567Z,14.96
2018-05-02T09:13:04.533Z,15.02
2018-05-02T09:14:04.514Z,15.14
2018-05-02T09:15:04.486Z,15.15
2018-05-02T09:16:04.465Z,15.15
2018-05-02T09:17:04.435Z,15.14
2018-05-02T09:18:04.410Z,15.28
2018-05-02T09:19:04.391Z,15.27
2018-05-02T09:20:04.365Z,15.28
2018-05-02T09:21:04.339Z,15.29
2018-05-02T09:22:04.313Z,15.24
2018-05-02T09:23:04.282Z,15.17
2018-05-02T09:24:04.263Z,15.11
2018-05-02T09:25:04.230Z,15.17
2018-05-02T09:26:04.212Z,15.24
2018-05-02T09:27:04.188Z,15.09
2018-05-02T09:28:04.155Z,15.04
2018-05-02T09:29:04.136Z,15.17
2018-05-02T09:30:04.113Z,15.24
2018-05-02T09:31:04.078Z,15.24
2018-05-02T09:32:04.061Z,15.35
2018-05-02T09:33:04.033Z,15.35
2018-05-02T09:34:04.015Z,15.44
2018-05-02T09:35:03.983Z,15.47
2018-05-02T09:36:03.952Z,15.46
2018-05-02T09:37:03.933Z,15.31
2018-05-02T09:38:03.908Z,15.19
2018-05-02T09:39:03.879Z,15.31
2018-05-02T09:40:03.859Z,15.24
2018-05-02T09:41:03.828Z,15.14
2018-05-02T09:42:03.810Z,15.21
2018-05-02T09:43:03.777Z,15.24
2018-05-02T09:44:03.794Z,15.39
2018-05-02T09:45:03.725Z,15.36
2018-05-02T09:46:03.698Z,15.39
2018-05-02T09:47:03.682Z,15.65
2018-05-02T09:48:03.660Z,15.62
2018-05-02T09:49:03.638Z,15.65
2018-05-02T09:50:03.602Z,15.77
2018-05-02T09:51:03.579Z,15.83
2018-05-02T09:52:03.562Z,15.91
2018-05-02T09:53:03.525Z,15.94
2018-05-02T09:54:03.507Z,15.90
2018-05-02T09:55:03.479Z,15.95
2018-05-02T09:56:03.453Z,16.02
2018-05-02T09:57:03.429Z,16.04
2018-05-02T09:58:03.405Z,16.05
2018-05-02T09:59:03.377Z,16.05
2018-05-02T10:00:03.348Z,16.20
2018-05-02T10:01:03.338Z,16.12
2018-05-02T10:02:03.309Z,16.05
2018-05-02T10:03:03.277Z,15.91
2018-05-02T10:04:03.251Z,15.83
2018-05-02T10:05:03.227Z,15.75
2018-05-02T10:06:03.202Z,15.79
2018-05-02T10:07:03.182Z,15.83
2018-05-02T10:08:03.154Z,15.79
2018-05-02T10:09:03.125Z,15.91
2018-05-02T10:10:03.105Z,15.98
2018-05-02T10:11:03.077Z,15.97
2018-05-02T10:12:03.051Z,15.91
2018-05-02T10:13:03.042Z,15.98
2018-05-02T10:14:03.007Z,16.00
2018-05-02T10:15:02.981Z,16.00
2018-05-02T10:16:02.958Z,15.92
2018-05-02T10:17:02.948Z,15.92
2018-05-02T10:18:02.902Z,15.95
2018-05-02T10:19:02.884Z,15.94
2018-05-02T10:20:02.849Z,15.97
2018-05-02T10:21:02.832Z,15.92
2018-05-02T10:22:02.821Z,16.02
2018-05-02T10:23:02.774Z,16.09
2018-05-02T10:24:02.808Z,16.05
2018-05-02T10:25:02.729Z,16.09
2018-05-02T10:26:02.708Z,16.09
2018-05-02T10:27:02.673Z,16.04
2018-05-02T10:28:02.659Z,16.08
2018-05-02T10:29:02.625Z,16.05
2018-05-02T10:30:02.604Z,16.12
2018-05-02T10:31:02.589Z,16.10
2018-05-02T10:32:02.549Z,16.02
2018-05-02T10:33:02.533Z,16.02
2018-05-02T10:34:02.511Z,15.92
2018-05-02T10:35:02.475Z,15.98
2018-05-02T10:36:02.465Z,16.00
2018-05-02T10:37:02.524Z,16.02
2018-05-02T10:38:02.406Z,16.05
2018-05-02T10:39:02.375Z,16.09
2018-05-02T10:40:02.355Z,15.97
2018-05-02T10:41:02.325Z,15.95
2018-05-02T10:42:02.310Z,15.83
2018-05-02T10:43:02.319Z,15.88
2018-05-02T10:44:02.252Z,15.65
2018-05-02T10:45:02.232Z,15.79
2018-05-02T10:46:02.208Z,15.82
2018-05-02T10:47:02.180Z,15.83
2018-05-02T10:48:02.159Z,15.90
2018-05-02T10:49:02.123Z,15.97
2018-05-02T10:50:02.103Z,15.97
2018-05-02T10:51:02.076Z,15.97
2018-05-02T10:52:02.062Z,16.01
2018-05-02T10:53:02.067Z,16.02
2018-05-02T10:54:02.007Z,15.98
2018-05-02T10:55:01.980Z,15.91
2018-05-02T10:56:02.014Z,15.91
2018-05-02T10:57:01.928Z,15.94
2018-05-02T10:58:01.905Z,16.05
2018-05-02T10:59:01.873Z,16.10
2018-05-02T11:00:01.860Z,16.17
2018-05-02T11:01:01.824Z,16.10
2018-05-02T11:02:01.800Z,16.17
2018-05-02T11:03:01.783Z,16.13
2018-05-02T11:04:01.765Z,16.17
2018-05-02T11:05:01.731Z,16.20
2018-05-02T11:06:01.708Z,16.20
2018-05-02T11:07:01.683Z,16.26
2018-05-02T11:08:01.656Z,16.28
2018-05-02T11:09:01.632Z,16.29
2018-05-02T11:10:01.605Z,16.32
2018-05-02T11:11:01.575Z,16.26
2018-05-02T11:12:01.559Z,16.28
2018-05-02T11:13:01.552Z,16.42
2018-05-02T11:14:01.506Z,16.38
2018-05-02T11:15:01.475Z,16.43
2018-05-02T11:16:01.450Z,16.36
2018-05-02T11:17:01.424Z,16.28
2018-05-02T11:18:01.405Z,16.35
2018-05-02T11:19:01.388Z,16.29
2018-05-02T11:20:01.356Z,16.32
2018-05-02T11:21:01.323Z,16.38
2018-05-02T11:22:01.369Z,16.42
2018-05-02T11:23:01.284Z,16.41
2018-05-02T11:24:01.250Z,16.51
2018-05-02T11:25:01.233Z,16.51
2018-05-02T11:26:01.202Z,16.49
2018-05-02T11:27:01.178Z,16.51
2018-05-02T11:28:01.151Z,16.47
2018-05-02T11:29:01.131Z,16.58
2018-05-02T11:30:01.106Z,16.54
2018-05-02T11:31:01.081Z,16.66
2018-05-02T11:32:01.061Z,16.75
2018-05-02T11:33:01.033Z,16.81
2018-05-02T11:34:01.008Z,16.90
2018-05-02T11:35:00.984Z,16.93
2018-05-02T11:36:00.954Z,16.96
2018-05-02T11:37:00.933Z,17.02
2018-05-02T11:38:00.950Z,17.11
2018-05-02T11:39:00.876Z,17.11
2018-05-02T11:40:00.861Z,17.05
2018-05-02T11:41:00.824Z,17.05
2018-05-02T11:42:00.809Z,16.91
2018-05-02T11:43:00.782Z,16.96
2018-05-02T11:44:00.757Z,17.08
2018-05-02T11:45:00.752Z,17.02
2018-05-02T11:46:00.704Z,16.91
2018-05-02T11:47:00.681Z,16.91
2018-05-02T11:48:00.654Z,16.89
2018-05-02T11:49:00.631Z,16.96
2018-05-02T11:50:00.607Z,17.04
2018-05-02T11:51:00.584Z,17.08
2018-05-02T11:52:00.563Z,17.09
2018-05-02T11:53:00.534Z,17.24
2018-05-02T11:54:00.505Z,17.23
2018-05-02T11:55:00.563Z,17.29
2018-05-02T11:56:00.462Z,17.29
2018-05-02T11:57:00.438Z,17.30
2018-05-02T11:58:00.411Z,17.31
2018-05-02T11:59:00.392Z,17.29
2018-05-02T12:00:00.387Z,17.30
2018-05-02T12:01:00.332Z,17.36
2018-05-02T12:02:00.317Z,17.33
2018-05-02T12:03:00.287Z,17.34
2018-05-02T12:04:00.273Z,17.45
2018-05-02T12:05:00.239Z,17.42
2018-05-02T12:06:00.213Z,17.54
2018-05-02T12:07:00.232Z,17.68
2018-05-02T12:08:00.163Z,17.60
2018-05-02T12:09:00.144Z,17.64
2018-05-02T12:10:00.120Z,17.60
2018-05-02T12:11:00.088Z,17.67
2018-05-02T12:12:00.066Z,17.65
2018-05-02T12:13:00.043Z,17.64
2018-05-02T12:14:00.020Z,17.79
2018-05-02T12:15:00.069Z,17.82
2018-05-02T12:15:59.969Z,17.85
2018-05-02T12:16:59.951Z,17.79
2018-05-02T12:17:59.922Z,17.87
2018-05-02T12:18:59.893Z,17.92
2018-05-02T12:19:59.869Z,17.94
2018-05-02T12:20:59.844Z,18.07
2018-05-02T12:21:59.909Z,17.94
2018-05-02T12:22:59.796Z,17.95
2018-05-02T12:23:59.779Z,18.03
2018-05-02T12:24:59.747Z,18.04
2018-05-02T12:25:59.728Z,18.07
2018-05-02T12:26:59.703Z,18.07
2018-05-02T12:27:59.680Z,18.16
2018-05-02T12:28:59.652Z,18.34
2018-05-02T12:29:59.636Z,18.31
2018-05-02T12:30:59.603Z,18.33
2018-05-02T12:31:59.599Z,18.53
2018-05-02T12:32:59.553Z,18.58
2018-05-02T12:33:59.541Z,18.71
2018-05-02T12:34:59.512Z,18.73
2018-05-02T12:35:59.489Z,18.81
2018-05-02T12:36:59.470Z,18.84
2018-05-02T12:37:59.459Z,18.86
2018-05-02T12:38:59.419Z,18.88
2018-05-02T12:39:59.386Z,18.92
2018-05-02T12:40:59.362Z,19.11
2018-05-02T12:41:59.347Z,19.16
2018-05-02T12:42:59.311Z,19.16
2018-05-02T12:43:59.320Z,19.27
2018-05-02T12:44:59.312Z,19.27
2018-05-02T12:45:59.262Z,19.40
2018-05-02T12:46:59.221Z,19.49
2018-05-02T12:47:59.239Z,19.62
2018-05-02T12:48:59.175Z,19.77
2018-05-02T12:49:59.192Z,19.77
2018-05-02T12:50:59.132Z,19.88
2018-05-02T12:51:59.102Z,19.94
2018-05-02T12:52:59.089Z,20.03
2018-05-02T12:53:59.055Z,20.02
2018-05-02T12:54:59.035Z,19.96
2018-05-02T12:55:59.075Z,20.21
2018-05-02T12:56:58.985Z,20.24
2018-05-02T12:57:58.960Z,20.22
2018-05-02T12:58:58.944Z,20.22
2018-05-02T12:59:58.918Z,20.26
2018-05-02T13:00:58.900Z,20.32
2018-05-02T13:01:58.870Z,20.36
2018-05-02T13:02:58.848Z,20.34
2018-05-02T13:03:58.822Z,20.48